createdAt,value
2022-12-25T00:01:39.002Z,9.75
2022-12-25T00:04:05.473Z,9.79
2022-12-25T00:06:31.946Z,9.72
2022-12-25T00:08:58.332Z,9.63
2022-12-25T00:11:24.774Z,9.64
2022-12-25T00:13:51.296Z,9.60
2022-12-25T00:16:20.741Z,9.71
2022-12-25T00:18:48.025Z,9.75
2022-12-25T00:21:14.549Z,9.79
2022-12-25T00:23:41.324Z,9.75
2022-12-25T00:26:10.982Z,9.80
2022-12-25T00:28:38.319Z,9.83
2022-12-25T00:31:06.554Z,9.79
2022-12-25T00:33:35.844Z,9.83
2022-12-25T00:36:02.949Z,9.76
2022-12-25T00:38:29.475Z,9.77
2022-12-25T00:40:55.906Z,9.80
2022-12-25T00:43:22.530Z,9.76
2022-12-25T00:45:57.715Z,9.76
2022-12-25T00:48:25.087Z,9.69
2022-12-25T00:50:59.749Z,9.57
2022-12-25T00:53:27.578Z,9.62
2022-12-25T00:56:02.262Z,9.63
2022-12-25T00:58:30.843Z,9.71
2022-12-25T01:00:57.386Z,9.78
2022-12-25T01:03:24.513Z,9.79
2022-12-25T01:05:59.747Z,9.77
2022-12-25T01:08:28.805Z,9.75
2022-12-25T01:10:56.646Z,9.70
2022-12-25T01:13:23.106Z,9.67
2022-12-25T01:15:52.102Z,9.56
2022-12-25T01:18:19.565Z,9.57
2022-12-25T01:20:46.071Z,9.66
2022-12-25T01:23:12.487Z,9.76
2022-12-25T01:25:39.074Z,9.77
2022-12-25T01:28:05.695Z,9.80
2022-12-25T01:30:32.606Z,9.88
2022-12-25T01:32:59.245Z,9.90
2022-12-25T01:35:25.823Z,9.93
2022-12-25T01:37:52.830Z,9.86
2022-12-25T01:40:19.395Z,10.00
2022-12-25T01:42:45.749Z,10.01
2022-12-25T01:45:33.844Z,10.02
2022-12-25T01:48:08.140Z,10.04
2022-12-25T01:50:35.887Z,10.07
2022-12-25T01:53:02.786Z,10.12
2022-12-25T01:55:29.675Z,10.14
2022-12-25T01:57:56.729Z,10.17
2022-12-25T02:00:23.159Z,10.14
2022-12-25T02:02:49.765Z,10.22
2022-12-25T02:05:25.898Z,10.18
2022-12-25T02:07:52.827Z,10.18
2022-12-25T02:10:19.610Z,10.22
2022-12-25T02:12:48.090Z,10.23
2022-12-25T02:15:18.242Z,10.22
2022-12-25T02:17:50.665Z,10.19
2022-12-25T02:20:23.029Z,10.31
2022-12-25T02:23:05.511Z,10.27
2022-12-25T02:25:43.788Z,10.29
2022-12-25T02:28:13.131Z,10.25
2022-12-25T02:30:46.194Z,10.28
2022-12-25T02:33:47.523Z,10.28
2022-12-25T02:36:19.042Z,10.23
2022-12-25T02:39:08.301Z,10.17
2022-12-25T02:41:39.822Z,10.03
2022-12-25T02:44:30.764Z,10.00
2022-12-25T02:47:16.064Z,9.83
2022-12-25T02:50:02.442Z,9.68
2022-12-25T02:52:49.652Z,9.71
2022-12-25T02:55:41.447Z,9.72
2022-12-25T02:58:31.725Z,9.57
2022-12-25T03:01:39.243Z,9.63
2022-12-25T03:04:29.534Z,9.72
2022-12-25T03:07:18.583Z,9.67
2022-12-25T03:10:13.522Z,9.65
2022-12-25T03:12:50.449Z,9.65
2022-12-25T03:15:37.882Z,9.65
2022-12-25T03:18:09.135Z,9.63
2022-12-25T03:20:55.977Z,9.73
2022-12-25T03:23:44.405Z,9.82
2022-12-25T03:26:29.719Z,9.70
2022-12-25T03:28:56.175Z,9.72
2022-12-25T03:31:41.065Z,9.79
2022-12-25T03:34:38.551Z,9.89
2022-12-25T03:37:32.742Z,9.93
2022-12-25T03:40:30.068Z,10.01
2022-12-25T03:43:25.439Z,10.03
2022-12-25T03:46:16.306Z,10.01
2022-12-25T03:49:05.073Z,10.00
2022-12-25T03:51:54.874Z,9.95
2022-12-25T03:54:46.268Z,9.99
2022-12-25T03:57:32.722Z,9.97
2022-12-25T04:00:17.536Z,9.96
2022-12-25T04:03:02.364Z,9.95
2022-12-25T04:05:47.421Z,10.04
2022-12-25T04:08:32.131Z,9.86
2022-12-25T04:11:16.868Z,9.95
2022-12-25T04:14:21.552Z,9.94
2022-12-25T04:17:06.845Z,9.97
2022-12-25T04:19:51.599Z,10.01
2022-12-25T04:22:36.466Z,10.00
2022-12-25T04:25:21.239Z,9.88
2022-12-25T04:28:06.042Z,9.86
2022-12-25T04:30:50.752Z,9.84
2022-12-25T04:33:35.488Z,9.95
2022-12-25T04:36:11.859Z,9.96
2022-12-25T04:38:39.434Z,9.97
2022-12-25T04:41:06.566Z,10.01
2022-12-25T04:43:32.969Z,9.94
2022-12-25T04:46:01.018Z,9.93
2022-12-25T04:48:28.721Z,9.92
2022-12-25T04:50:55.310Z,9.87
2022-12-25T04:53:22.023Z,9.78
2022-12-25T04:55:48.452Z,9.86
2022-12-25T04:58:14.855Z,9.89
2022-12-25T05:00:41.388Z,9.85
2022-12-25T05:03:07.897Z,9.84
2022-12-25T05:05:34.500Z,9.88
2022-12-25T05:08:00.974Z,9.62
2022-12-25T05:10:27.363Z,9.61
2022-12-25T05:12:53.720Z,9.49
2022-12-25T05:15:20.131Z,9.48
2022-12-25T05:17:46.611Z,9.50
2022-12-25T05:20:12.986Z,9.60
2022-12-25T05:22:39.407Z,9.68
2022-12-25T05:25:06.220Z,9.51
2022-12-25T05:27:32.695Z,9.52
2022-12-25T05:29:59.092Z,9.61
2022-12-25T05:32:25.447Z,9.57
2022-12-25T05:34:51.831Z,9.54
2022-12-25T05:37:18.253Z,9.63
2022-12-25T05:39:44.648Z,9.77
2022-12-25T05:42:11.042Z,9.85
2022-12-25T05:44:37.519Z,9.87
2022-12-25T05:47:03.988Z,9.93
2022-12-25T05:49:30.453Z,10.01
2022-12-25T05:51:56.883Z,10.06
2022-12-25T05:54:23.261Z,10.05
2022-12-25T05:56:49.596Z,10.08
2022-12-25T05:59:16.006Z,9.87
2022-12-25T06:01:42.440Z,10.05
2022-12-25T06:04:12.684Z,10.01
2022-12-25T06:06:39.601Z,9.96
2022-12-25T06:09:05.991Z,9.95
2022-12-25T06:11:32.453Z,9.88
2022-12-25T06:13:58.861Z,10.09
2022-12-25T06:16:25.307Z,10.14
2022-12-25T06:18:52.125Z,10.15
2022-12-25T06:21:18.700Z,10.04
2022-12-25T06:23:45.630Z,10.10
2022-12-25T06:26:15.344Z,10.27
2022-12-25T06:28:42.151Z,10.17
2022-12-25T06:31:17.470Z,10.12
2022-12-25T06:33:44.808Z,10.24
2022-12-25T06:36:14.438Z,10.22
2022-12-25T06:38:41.624Z,10.18
2022-12-25T06:41:10.697Z,10.31
2022-12-25T06:43:37.993Z,10.32
2022-12-25T06:46:12.223Z,10.32
2022-12-25T06:48:40.469Z,10.31
2022-12-25T06:51:07.810Z,10.27
2022-12-25T06:53:40.411Z,10.23
2022-12-25T06:56:15.115Z,10.17
2022-12-25T06:58:46.927Z,10.14
2022-12-25T07:01:30.209Z,10.13
2022-12-25T07:04:00.063Z,10.14
2022-12-25T07:06:26.645Z,10.11
2022-12-25T07:08:53.160Z,10.05
2022-12-25T07:11:19.997Z,9.94
2022-12-25T07:13:46.784Z,9.92
2022-12-25T07:16:13.961Z,10.00
2022-12-25T07:18:41.288Z,9.90
2022-12-25T07:21:13.440Z,9.80
2022-12-25T07:23:40.047Z,9.88
2022-12-25T07:26:06.558Z,9.89
2022-12-25T07:28:33.983Z,10.00
2022-12-25T07:31:01.957Z,9.84
2022-12-25T07:33:28.502Z,9.81
2022-12-25T07:35:54.889Z,9.80
2022-12-25T07:38:21.303Z,9.76
2022-12-25T07:40:48.130Z,9.95
2022-12-25T07:43:14.538Z,10.01
2022-12-25T07:45:40.975Z,10.11
2022-12-25T07:48:11.890Z,10.17
2022-12-25T07:50:41.758Z,10.21
2022-12-25T07:53:08.200Z,10.28
2022-12-25T07:55:34.645Z,10.26
2022-12-25T07:58:01.012Z,10.18
2022-12-25T08:00:32.303Z,10.13
2022-12-25T08:02:59.980Z,10.22
2022-12-25T08:05:26.927Z,10.13
2022-12-25T08:07:57.618Z,10.26
2022-12-25T08:10:24.712Z,10.49
2022-12-25T08:12:51.967Z,10.48
2022-12-25T08:15:18.394Z,10.43
2022-12-25T08:17:44.781Z,10.53
2022-12-25T08:20:11.556Z,10.53
2022-12-25T08:22:37.971Z,10.51
2022-12-25T08:25:04.900Z,10.53
2022-12-25T08:27:31.378Z,10.57
2022-12-25T08:29:57.740Z,10.69
2022-12-25T08:32:24.147Z,10.67
2022-12-25T08:34:50.504Z,10.69
2022-12-25T08:37:16.914Z,10.68
2022-12-25T08:39:43.325Z,10.68
2022-12-25T08:42:09.725Z,10.58
2022-12-25T08:44:36.227Z,10.65
2022-12-25T08:47:02.602Z,10.62
2022-12-25T08:49:29.179Z,10.72
2022-12-25T08:51:55.779Z,10.75
2022-12-25T08:54:22.145Z,10.68
2022-12-25T08:56:48.472Z,10.60
2022-12-25T08:59:14.855Z,10.37
2022-12-25T09:01:41.378Z,10.36
2022-12-25T09:04:07.842Z,10.28
2022-12-25T09:06:34.248Z,10.36
2022-12-25T09:09:00.728Z,10.26
2022-12-25T09:11:27.210Z,10.23
2022-12-25T09:13:53.571Z,10.20
2022-12-25T09:16:21.636Z,10.15
2022-12-25T09:18:48.951Z,10.25
2022-12-25T09:21:16.698Z,10.42
2022-12-25T09:23:43.066Z,10.32
2022-12-25T09:26:12.991Z,10.47
2022-12-25T09:28:40.835Z,10.46
2022-12-25T09:31:10.314Z,10.38
2022-12-25T09:33:36.798Z,10.32
2022-12-25T09:36:07.055Z,10.30
2022-12-25T09:38:34.824Z,10.31
2022-12-25T09:41:09.051Z,10.52
2022-12-25T09:43:46.230Z,10.43
2022-12-25T09:46:20.994Z,10.43
2022-12-25T09:49:12.418Z,10.47
2022-12-25T09:51:43.561Z,10.56
2022-12-25T09:54:18.811Z,10.52
2022-12-25T09:56:45.208Z,10.63
2022-12-25T09:59:26.296Z,10.71
2022-12-25T10:02:19.191Z,11.25
2022-12-25T10:05:04.062Z,11.27
2022-12-25T10:08:22.762Z,10.96
2022-12-25T10:10:53.848Z,10.87
2022-12-25T10:13:41.544Z,11.03
2022-12-25T10:16:46.547Z,11.22
2022-12-25T10:19:53.418Z,11.09
2022-12-25T10:22:29.898Z,11.06
2022-12-25T10:24:59.176Z,11.16
2022-12-25T10:27:37.092Z,11.43
2022-12-25T10:30:15.909Z,11.61
2022-12-25T10:32:43.252Z,11.54
2022-12-25T10:35:19.583Z,11.44
2022-12-25T10:37:55.106Z,11.25
2022-12-25T10:40:28.463Z,11.27
2022-12-25T10:43:04.252Z,11.23
2022-12-25T10:45:30.650Z,11.27
2022-12-25T10:48:07.667Z,11.26
2022-12-25T10:50:41.723Z,11.44
2022-12-25T10:53:18.542Z,11.44
2022-12-25T10:56:01.054Z,11.40
2022-12-25T10:58:28.047Z,11.35
2022-12-25T11:01:00.146Z,11.40
2022-12-25T11:03:31.349Z,11.38
2022-12-25T11:05:58.043Z,11.42
2022-12-25T11:08:27.920Z,11.41
2022-12-25T11:10:58.290Z,11.43
2022-12-25T11:13:27.846Z,11.45
2022-12-25T11:16:12.991Z,11.41
2022-12-25T11:18:48.936Z,11.40
2022-12-25T11:21:22.039Z,11.42
2022-12-25T11:23:55.315Z,11.37
2022-12-25T11:26:21.919Z,11.39
2022-12-25T11:28:52.187Z,11.47
2022-12-25T11:31:29.950Z,11.64
2022-12-25T11:33:56.406Z,11.64
2022-12-25T11:36:34.890Z,11.57
2022-12-25T11:39:19.971Z,11.49
2022-12-25T11:41:46.477Z,11.55
2022-12-25T11:44:28.082Z,11.59
2022-12-25T11:46:56.136Z,11.65
2022-12-25T11:49:23.343Z,11.57
2022-12-25T11:51:53.926Z,11.83
2022-12-25T11:54:38.835Z,12.00
2022-12-25T11:57:07.037Z,12.11
2022-12-25T11:59:40.752Z,12.11
2022-12-25T12:02:10.294Z,12.15
2022-12-25T12:04:43.103Z,12.43
2022-12-25T12:07:24.973Z,12.79
2022-12-25T12:10:07.244Z,12.62
2022-12-25T12:12:49.188Z,12.68
2022-12-25T12:15:29.569Z,12.67
2022-12-25T12:18:22.283Z,13.04
2022-12-25T12:21:08.066Z,13.19
2022-12-25T12:23:48.545Z,12.88
2022-12-25T12:26:29.677Z,12.60
2022-12-25T12:29:01.998Z,12.73
2022-12-25T12:31:48.766Z,12.58
2022-12-25T12:34:30.808Z,12.70
2022-12-25T12:37:24.457Z,12.77
2022-12-25T12:39:53.909Z,12.97
2022-12-25T12:42:25.914Z,13.43
2022-12-25T12:44:55.207Z,13.41
2022-12-25T12:47:46.402Z,13.59
2022-12-25T12:50:28.681Z,13.27
2022-12-25T12:52:55.447Z,13.21
2022-12-25T12:55:34.054Z,13.17
2022-12-25T12:58:05.948Z,13.13
2022-12-25T13:00:56.251Z,13.16
2022-12-25T13:03:34.748Z,13.07
2022-12-25T13:06:26.751Z,13.03
2022-12-25T13:09:18.612Z,12.97
2022-12-25T13:11:45.280Z,12.92
2022-12-25T13:14:20.908Z,13.00
2022-12-25T13:16:49.860Z,12.97
2022-12-25T13:19:22.832Z,12.97
2022-12-25T13:22:00.847Z,13.02
2022-12-25T13:24:35.077Z,13.03
2022-12-25T13:27:19.245Z,13.09
2022-12-25T13:29:46.280Z,13.07
2022-12-25T13:32:24.043Z,12.96
2022-12-25T13:34:51.465Z,12.98
2022-12-25T13:37:24.620Z,13.03
2022-12-25T13:40:00.300Z,13.00
2022-12-25T13:42:30.094Z,13.10
2022-12-25T13:45:00.372Z,13.11
2022-12-25T13:47:30.969Z,13.11
2022-12-25T13:49:59.627Z,13.18
2022-12-25T13:52:37.697Z,13.30
2022-12-25T13:55:12.400Z,13.34
2022-12-25T13:57:42.151Z,13.29
2022-12-25T14:00:18.984Z,13.31
2022-12-25T14:02:45.820Z,13.16
2022-12-25T14:05:27.418Z,13.52
2022-12-25T14:07:56.119Z,13.58
2022-12-25T14:10:25.404Z,13.44
2022-12-25T14:12:55.120Z,13.24
2022-12-25T14:15:23.420Z,13.20
2022-12-25T14:17:51.511Z,13.18
2022-12-25T14:20:36.803Z,13.02
2022-12-25T14:23:05.004Z,12.90
2022-12-25T14:25:41.001Z,13.15
2022-12-25T14:28:17.049Z,13.16
2022-12-25T14:30:43.764Z,13.21
2022-12-25T14:33:20.943Z,13.09
2022-12-25T14:35:48.338Z,12.83
2022-12-25T14:38:38.052Z,12.70
2022-12-25T14:41:21.125Z,12.60
2022-12-25T14:43:55.136Z,12.55
2022-12-25T14:46:26.819Z,12.42
2022-12-25T14:49:00.222Z,12.67
2022-12-25T14:51:28.175Z,12.52
2022-12-25T14:54:14.007Z,12.40
2022-12-25T14:56:47.384Z,12.27
2022-12-25T14:59:18.424Z,12.31
2022-12-25T15:01:51.786Z,12.13
2022-12-25T15:04:20.552Z,12.06
2022-12-25T15:06:53.257Z,11.95
2022-12-25T15:09:20.308Z,11.86
2022-12-25T15:11:51.032Z,11.85
2022-12-25T15:14:17.798Z,11.79
2022-12-25T15:16:50.708Z,11.71
2022-12-25T15:19:25.228Z,11.62
2022-12-25T15:21:52.959Z,11.53
2022-12-25T15:24:19.352Z,11.47
2022-12-25T15:26:45.734Z,11.42
2022-12-25T15:29:12.106Z,11.28
2022-12-25T15:31:39.312Z,11.27
2022-12-25T15:34:15.363Z,11.00
2022-12-25T15:36:41.721Z,10.82
2022-12-25T15:39:08.185Z,10.75
2022-12-25T15:41:56.403Z,10.57
2022-12-25T15:44:23.576Z,10.46
2022-12-25T15:46:50.059Z,10.30
2022-12-25T15:49:17.143Z,10.20
2022-12-25T15:51:44.063Z,10.10
2022-12-25T15:54:11.033Z,9.95
2022-12-25T15:56:44.411Z,9.74
2022-12-25T15:59:13.115Z,9.78
2022-12-25T16:01:43.089Z,9.92
2022-12-25T16:04:09.495Z,9.66
2022-12-25T16:06:35.915Z,9.52
2022-12-25T16:09:02.342Z,9.58
2022-12-25T16:11:28.755Z,9.67
2022-12-25T16:13:55.228Z,9.66
2022-12-25T16:16:22.790Z,9.55
2022-12-25T16:18:49.346Z,9.45
2022-12-25T16:21:18.728Z,9.39
2022-12-25T16:23:45.281Z,9.34
2022-12-25T16:26:11.737Z,9.11
2022-12-25T16:28:38.231Z,9.01
2022-12-25T16:31:04.786Z,9.00
2022-12-25T16:33:31.658Z,8.94
2022-12-25T16:35:58.171Z,8.69
2022-12-25T16:38:24.691Z,8.67
2022-12-25T16:40:59.661Z,8.73
2022-12-25T16:43:26.107Z,9.26
2022-12-25T16:45:52.783Z,9.63
2022-12-25T16:48:19.393Z,9.80
2022-12-25T16:50:45.968Z,10.02
2022-12-25T16:53:12.795Z,9.78
2022-12-25T16:55:39.565Z,9.60
2022-12-25T16:58:06.634Z,9.48
2022-12-25T17:00:33.264Z,9.32
2022-12-25T17:03:00.944Z,9.23
2022-12-25T17:05:27.580Z,9.10
2022-12-25T17:07:53.984Z,8.71
2022-12-25T17:10:21.440Z,8.54
2022-12-25T17:12:48.110Z,8.37
2022-12-25T17:15:14.563Z,8.23
2022-12-25T17:17:41.672Z,8.22
2022-12-25T17:20:08.851Z,8.23
2022-12-25T17:22:35.284Z,8.24
2022-12-25T17:25:01.702Z,8.36
2022-12-25T17:27:28.154Z,8.39
2022-12-25T17:29:54.627Z,8.48
2022-12-25T17:32:20.983Z,8.66
2022-12-25T17:34:47.463Z,8.78
2022-12-25T17:37:13.848Z,8.72
2022-12-25T17:39:40.238Z,8.83
2022-12-25T17:42:06.671Z,8.87
2022-12-25T17:44:33.075Z,8.85
2022-12-25T17:47:04.097Z,8.92
2022-12-25T17:49:30.679Z,8.88
2022-12-25T17:51:57.099Z,8.74
2022-12-25T17:54:23.544Z,8.70
2022-12-25T17:56:50.649Z,8.58
2022-12-25T17:59:18.778Z,8.47
2022-12-25T18:01:46.901Z,8.43
2022-12-25T18:04:13.668Z,8.69
2022-12-25T18:06:40.305Z,8.58
2022-12-25T18:09:07.219Z,8.62
2022-12-25T18:11:34.064Z,8.63
2022-12-25T18:14:05.672Z,8.68
2022-12-25T18:16:35.209Z,8.47
2022-12-25T18:19:02.006Z,8.67
2022-12-25T18:21:29.183Z,8.83
2022-12-25T18:23:55.629Z,8.88
2022-12-25T18:26:22.716Z,8.97
2022-12-25T18:28:50.068Z,9.05
2022-12-25T18:31:20.181Z,9.08
2022-12-25T18:33:46.876Z,8.99
2022-12-25T18:36:16.029Z,8.94
2022-12-25T18:38:42.668Z,8.86
2022-12-25T18:41:10.818Z,8.67
2022-12-25T18:43:54.283Z,8.78
2022-12-25T18:46:24.456Z,8.66
2022-12-25T18:48:51.758Z,8.56
2022-12-25T18:51:18.198Z,8.61
2022-12-25T18:53:44.994Z,8.57
2022-12-25T18:56:15.165Z,8.63
2022-12-25T18:58:41.810Z,8.88
2022-12-25T19:01:21.818Z,8.82
2022-12-25T19:03:49.530Z,8.87
2022-12-25T19:06:18.508Z,8.86
2022-12-25T19:08:44.986Z,8.90
2022-12-25T19:11:11.447Z,8.83
2022-12-25T19:13:37.914Z,8.64
2022-12-25T19:16:04.941Z,8.51
2022-12-25T19:18:31.588Z,8.51
2022-12-25T19:21:01.752Z,8.53
2022-12-25T19:23:28.163Z,8.38
2022-12-25T19:25:54.581Z,8.26
2022-12-25T19:28:21.131Z,8.11
2022-12-25T19:30:47.560Z,8.05
2022-12-25T19:33:17.685Z,7.90
2022-12-25T19:35:44.655Z,7.86
2022-12-25T19:38:11.023Z,7.92
2022-12-25T19:40:39.652Z,7.93
2022-12-25T19:43:06.918Z,7.97
2022-12-25T19:45:33.530Z,7.82
2022-12-25T19:48:00.047Z,7.84
2022-12-25T19:50:28.436Z,8.38
2022-12-25T19:52:55.375Z,8.63
2022-12-25T19:55:22.059Z,8.51
2022-12-25T19:57:49.496Z,8.59
2022-12-25T20:00:16.396Z,8.44
2022-12-25T20:02:42.832Z,8.70
2022-12-25T20:05:09.363Z,8.88
2022-12-25T20:07:35.773Z,8.81
2022-12-25T20:10:02.174Z,8.84
2022-12-25T20:12:28.580Z,8.81
2022-12-25T20:14:54.947Z,8.79
2022-12-25T20:17:21.360Z,8.74
2022-12-25T20:19:47.773Z,8.54
2022-12-25T20:22:14.136Z,8.72
2022-12-25T20:24:40.574Z,8.67
2022-12-25T20:27:06.990Z,8.63
2022-12-25T20:29:33.444Z,8.62
2022-12-25T20:31:59.901Z,8.59
2022-12-25T20:34:26.419Z,8.35
2022-12-25T20:36:52.865Z,8.46
2022-12-25T20:39:19.261Z,8.56
2022-12-25T20:41:47.441Z,8.28
2022-12-25T20:44:13.889Z,8.40
2022-12-25T20:46:40.319Z,8.02
2022-12-25T20:49:06.919Z,8.29
2022-12-25T20:51:33.703Z,8.21
2022-12-25T20:54:00.879Z,8.08
2022-12-25T20:56:27.585Z,7.89
2022-12-25T20:58:55.903Z,8.26
2022-12-25T21:01:22.867Z,8.30
2022-12-25T21:03:49.905Z,8.59
2022-12-25T21:06:16.530Z,8.50
2022-12-25T21:08:42.975Z,8.62
2022-12-25T21:11:10.093Z,8.22
2022-12-25T21:13:40.330Z,8.07
2022-12-25T21:16:08.994Z,8.14
2022-12-25T21:18:35.809Z,8.17
2022-12-25T21:21:05.716Z,8.39
2022-12-25T21:23:34.055Z,8.41
2022-12-25T21:26:19.593Z,8.46
2022-12-25T21:28:50.845Z,8.21
2022-12-25T21:31:18.000Z,8.16
2022-12-25T21:33:54.794Z,8.13
2022-12-25T21:36:24.647Z,8.40
2022-12-25T21:39:03.261Z,8.21
2022-12-25T21:41:31.069Z,8.30
2022-12-25T21:43:57.879Z,8.20
2022-12-25T21:46:25.548Z,7.89
2022-12-25T21:48:52.871Z,7.95
2022-12-25T21:51:41.670Z,7.92
2022-12-25T21:54:09.046Z,8.17
2022-12-25T21:56:43.601Z,8.13
2022-12-25T21:59:21.728Z,7.86
2022-12-25T22:01:49.373Z,8.02
2022-12-25T22:04:17.288Z,8.06
2022-12-25T22:07:02.875Z,7.97
2022-12-25T22:09:29.889Z,7.83
2022-12-25T22:12:15.082Z,7.96
2022-12-25T22:14:54.257Z,7.94
2022-12-25T22:17:46.811Z,8.61
2022-12-25T22:20:16.751Z,8.62
2022-12-25T22:22:44.068Z,8.45
2022-12-25T22:25:11.308Z,8.72
2022-12-25T22:27:39.629Z,8.87
2022-12-25T22:30:09.377Z,9.10
2022-12-25T22:32:36.085Z,9.46
2022-12-25T22:35:02.827Z,9.52
2022-12-25T22:37:29.245Z,9.75
2022-12-25T22:39:55.649Z,9.70
2022-12-25T22:42:22.269Z,9.83
2022-12-25T22:44:48.828Z,10.00
2022-12-25T22:47:15.355Z,9.91
2022-12-25T22:49:41.721Z,9.97
2022-12-25T22:52:09.766Z,10.00
2022-12-25T22:54:36.319Z,10.09
2022-12-25T22:57:02.860Z,10.15
2022-12-25T22:59:29.584Z,10.02
2022-12-25T23:01:56.106Z,10.02
2022-12-25T23:04:23.816Z,10.08
2022-12-25T23:06:50.984Z,10.05
2022-12-25T23:09:24.513Z,10.09
2022-12-25T23:11:51.436Z,10.38
2022-12-25T23:14:36.432Z,10.46
2022-12-25T23:17:03.015Z,10.38
2022-12-25T23:19:48.012Z,10.34
2022-12-25T23:22:33.699Z,10.32
2022-12-25T23:25:18.347Z,10.37
2022-12-25T23:27:45.380Z,10.45
2022-12-25T23:30:14.494Z,10.30
2022-12-25T23:32:41.623Z,10.45
2022-12-25T23:35:08.325Z,10.22
2022-12-25T23:37:34.764Z,10.14
2022-12-25T23:40:01.176Z,10.19
2022-12-25T23:42:27.624Z,10.02
2022-12-25T23:44:54.266Z,10.24
2022-12-25T23:47:20.672Z,10.06
2022-12-25T23:49:47.016Z,10.23
2022-12-25T23:52:13.929Z,10.32
2022-12-25T23:54:40.348Z,10.39
2022-12-25T23:57:06.823Z,10.36
2022-12-25T23:59:33.481Z,10.43
